Time;durP1;ratioP1;P1;durP2;ratioP2;P2;SDS_P1;SDS_P2;PMS_P1;PMS_P2;Temp;Humidity;BMP_temperature;BMP_pressure;BME280_temperature;BME280_humidity;BME280_pressure;Samples;Min_cycle;Max_cycle;Signal;HPM_P1;HPM_P2
2022/06/18 00:00:19;;;;;;;3.60;2.78;;;;;;;23.01;58.59;101651.22;5115412;28;20060;-57
2022/06/18 00:02:45;;;;;;;6.47;3.10;;;;;;;22.88;58.83;101644.78;5115583;28;20039;-57
2022/06/18 00:05:14;;;;;;;6.55;2.95;;;;;;;22.85;59.84;101652.97;5115298;28;20042;-57
2022/06/18 00:07:45;;;;;;;4.32;2.95;;;;;;;22.80;59.46;101653.19;5115224;28;20036;-57
2022/06/18 00:10:14;;;;;;;7.75;3.25;;;;;;;22.75;60.34;101654.34;5115296;28;20023;-57
2022/06/18 00:15:28;;;;;;;4.18;2.90;;;;;;;22.64;60.98;101649.56;5115386;28;20082;-56
2022/06/18 00:17:55;;;;;;;4.72;2.85;;;;;;;22.56;61.48;101646.41;5116191;28;20048;-57
2022/06/18 00:20:22;;;;;;;5.97;3.00;;;;;;;22.48;62.59;101646.81;5114876;28;20049;-58
2022/06/18 00:22:52;;;;;;;5.32;2.90;;;;;;;22.50;61.54;101644.91;5115190;28;20158;-58
2022/06/18 00:25:22;;;;;;;4.97;3.20;;;;;;;22.48;61.26;101649.47;5115414;28;20039;-58
2022/06/18 00:27:48;;;;;;;5.82;3.03;;;;;;;22.51;61.19;101640.44;5115213;28;20048;-58
2022/06/18 00:30:17;;;;;;;4.38;2.95;;;;;;;22.50;62.34;101638.72;5115446;28;20444;-58
2022/06/18 00:32:43;;;;;;;5.45;3.10;;;;;;;22.41;61.41;101639.16;5115094;28;20023;-58
2022/06/18 00:35:08;;;;;;;3.47;2.80;;;;;;;22.38;63.10;101633.97;5115014;28;20347;-58
2022/06/18 00:37:34;;;;;;;4.47;3.20;;;;;;;22.36;62.19;101636.72;5114861;28;20366;-58
2022/06/18 00:40:00;;;;;;;4.30;3.20;;;;;;;22.38;62.39;101637.50;5115101;28;20141;-58
2022/06/18 00:42:29;;;;;;;4.47;3.10;;;;;;;22.34;62.35;101638.59;5119365;28;20063;-59
2022/06/18 00:44:59;;;;;;;5.05;3.30;;;;;;;22.27;62.97;101639.84;5119149;28;20410;-58
2022/06/18 00:47:47;;;;;;;4.47;3.05;;;;;;;22.28;63.19;101638.06;5119369;28;20039;-58
2022/06/18 00:50:39;;;;;;;6.72;3.17;;;;;;;22.15;64.15;101632.47;5119226;28;20339;-56
2022/06/18 00:53:07;;;;;;;6.55;3.22;;;;;;;22.16;63.11;101637.72;5110594;28;20031;-57
2022/06/18 00:55:51;;;;;;;6.75;3.53;;;;;;;22.03;65.05;101625.06;5118729;28;20183;-58
2022/06/18 00:58:26;;;;;;;3.85;2.88;;;;;;;21.96;63.86;101632.47;5119021;28;20447;-57
2022/06/18 01:00:55;;;;;;;5.60;3.58;;;;;;;21.89;64.80;101636.34;5118818;28;20028;-56
2022/06/18 01:03:34;;;;;;;9.20;3.58;;;;;;;21.91;64.16;101631.81;5118819;28;20028;-57
2022/06/18 01:06:04;;;;;;;4.47;3.08;;;;;;;21.84;64.96;101641.91;5118701;28;20403;-56
2022/06/18 01:08:32;;;;;;;3.88;3.25;;;;;;;21.80;65.12;101632.34;5118666;28;20028;-57
2022/06/18 01:11:00;;;;;;;6.97;3.30;;;;;;;21.69;66.11;101623.09;5118707;28;20039;-57
2022/06/18 01:13:34;;;;;;;6.63;3.58;;;;;;;21.62;65.50;101627.88;5118671;28;20039;-56
2022/06/18 01:16:01;;;;;;;5.45;3.22;;;;;;;21.64;66.34;101619.81;5118641;28;20122;-57
2022/06/18 01:18:28;;;;;;;4.90;3.30;;;;;;;21.66;66.56;101610.78;5118716;28;20039;-57
2022/06/18 01:21:16;;;;;;;5.82;3.55;;;;;;;21.66;66.41;101608.13;5118083;28;20492;-57
2022/06/18 01:23:48;;;;;;;6.03;3.50;;;;;;;21.57;66.23;101611.25;5104868;28;20047;-57
2022/06/18 01:26:13;;;;;;;5.78;3.53;;;;;;;21.61;67.23;101611.97;5118369;28;20349;-57
2022/06/18 01:28:39;;;;;;;5.78;3.42;;;;;;;21.47;67.67;101612.63;5117936;28;20197;-57
2022/06/18 01:31:04;;;;;;;4.07;3.67;;;;;;;21.50;66.90;101612.44;5118326;28;20113;-57
2022/06/18 01:33:33;;;;;;;6.07;3.30;;;;;;;21.50;67.40;101615.13;5117958;28;20118;-57
2022/06/18 01:36:02;;;;;;;5.78;3.60;;;;;;;21.40;67.77;101616.50;5118237;28;20355;-56
2022/06/18 01:38:28;;;;;;;4.43;3.40;;;;;;;21.39;67.22;101620.09;5118214;28;20035;-56
2022/06/18 01:41:49;;;;;;;4.10;3.70;;;;;;;21.29;68.68;101624.97;5118320;28;20035;-57
2022/06/18 01:43:52;;;;;;;6.90;3.85;;;;;;;21.30;68.20;101620.53;5117964;28;20054;-58
2022/06/18 01:46:17;;;;;;;5.80;3.70;;;;;;;21.22;68.77;101612.88;5117788;28;20039;-58
2022/06/18 01:48:45;;;;;;;6.20;3.70;;;;;;;21.25;69.35;101611.88;5118157;28;20358;-58
2022/06/18 01:51:19;;;;;;;7.28;3.90;;;;;;;21.16;68.88;101611.31;5117659;28;20056;-57
2022/06/18 01:53:49;;;;;;;6.38;3.67;;;;;;;21.13;69.22;101603.44;5116985;28;20034;-58
2022/06/18 01:56:19;;;;;;;5.60;3.63;;;;;;;21.23;68.52;101617.25;5117634;28;20031;-57
2022/06/18 01:58:49;;;;;;;4.80;3.90;;;;;;;21.22;68.56;101617.31;5117701;28;20035;-57
2022/06/18 02:01:20;;;;;;;6.90;3.85;;;;;;;21.16;69.13;101619.28;5117779;28;20038;-58
2022/06/18 02:03:45;;;;;;;8.18;4.10;;;;;;;21.06;70.48;101612.66;5117623;28;20418;-57
2022/06/18 02:06:10;;;;;;;7.13;4.10;;;;;;;21.03;69.92;101607.47;5117654;28;20039;-57
2022/06/18 02:08:37;;;;;;;5.43;4.18;;;;;;;21.03;70.59;101606.59;5117588;28;20032;-57
2022/06/18 02:11:05;;;;;;;6.57;4.00;;;;;;;21.02;70.73;101599.56;5117359;28;20096;-58
2022/06/18 02:13:54;;;;;;;5.60;4.30;;;;;;;20.95;70.08;101601.66;5117214;28;20035;-57
2022/06/18 02:16:24;;;;;;;5.40;4.35;;;;;;;20.87;71.93;101601.09;5117564;28;20035;-58
2022/06/18 02:18:50;;;;;;;6.03;4.10;;;;;;;20.91;70.54;101594.72;5117676;28;20070;-57
2022/06/18 02:21:20;;;;;;;5.53;4.13;;;;;;;20.94;70.28;101599.91;5117072;28;20051;-57
2022/06/18 02:23:45;;;;;;;4.97;4.18;;;;;;;20.88;70.81;101601.97;5117151;28;20084;-57
2022/06/18 02:26:11;;;;;;;5.07;4.18;;;;;;;20.89;70.54;101609.88;5117232;28;20062;-58
2022/06/18 02:28:40;;;;;;;5.63;4.40;;;;;;;20.95;70.52;101603.44;5116736;28;20513;-56
2022/06/18 02:31:10;;;;;;;6.35;4.10;;;;;;;20.88;70.81;101610.81;5117283;28;20031;-57
2022/06/18 02:33:47;;;;;;;6.65;4.60;;;;;;;20.83;71.65;101600.38;5117036;28;20058;-58
2022/06/18 02:36:25;;;;;;;5.65;4.40;;;;;;;20.93;70.30;101599.97;5117008;28;20097;-57
2022/06/18 02:38:57;;;;;;;5.30;4.45;;;;;;;20.85;70.53;101595.84;5116964;28;20097;-57
2022/06/18 02:41:24;;;;;;;9.43;4.85;;;;;;;20.89;70.29;101599.25;5116991;28;20031;-57
2022/06/18 02:43:50;;;;;;;7.50;5.35;;;;;;;20.87;70.58;101605.56;5116960;28;20028;-58
2022/06/18 02:46:15;;;;;;;7.10;5.07;;;;;;;20.88;70.27;101607.28;5116755;28;20066;-57
2022/06/18 02:48:42;;;;;;;5.55;4.93;;;;;;;20.89;70.69;101601.91;5117179;28;20055;-57
2022/06/18 02:51:10;;;;;;;6.22;4.68;;;;;;;20.80;71.20;101599.63;5117362;28;20050;-57
2022/06/18 02:53:36;;;;;;;7.30;4.68;;;;;;;20.81;71.02;101596.03;5116582;28;20023;-57
2022/06/18 02:56:04;;;;;;;5.55;5.03;;;;;;;20.84;71.11;101595.91;5116441;28;20028;-57
2022/06/18 02:58:32;;;;;;;6.40;4.97;;;;;;;20.81;70.11;101601.38;5116506;28;20028;-57
2022/06/18 03:01:10;;;;;;;7.57;4.65;;;;;;;20.81;70.32;101596.03;5117185;28;20031;-58
2022/06/18 03:03:40;;;;;;;7.65;4.95;;;;;;;20.77;71.24;101599.78;5116085;28;20110;-57
2022/06/18 03:06:07;;;;;;;5.50;5.00;;;;;;;20.75;71.38;101605.19;5116375;28;20039;-57
2022/06/18 03:08:33;;;;;;;6.10;5.10;;;;;;;20.70;71.21;101598.31;5116619;28;20039;-57
2022/06/18 03:13:44;;;;;;;7.15;5.20;;;;;;;20.77;70.69;101592.69;5115931;28;20582;-58
2022/06/18 03:16:12;;;;;;;7.72;5.32;;;;;;;20.79;70.68;101603.22;5116238;28;20031;-57
2022/06/18 03:18:40;;;;;;;8.82;5.07;;;;;;;20.70;71.02;101607.16;5116491;28;20031;-58
2022/06/18 03:21:19;;;;;;;6.47;5.00;;;;;;;20.72;70.82;101601.78;5116203;28;20040;-57
2022/06/18 03:23:45;;;;;;;6.95;5.30;;;;;;;20.70;71.70;101606.28;5115992;28;20028;-57
2022/06/18 03:26:12;;;;;;;6.35;5.03;;;;;;;20.64;72.06;101607.41;5115965;28;20159;-58
2022/06/18 03:28:37;;;;;;;7.28;5.50;;;;;;;20.66;71.38;101604.69;5115950;28;20051;-58
2022/06/18 03:31:03;;;;;;;7.13;4.65;;;;;;;20.69;71.20;101607.22;5116236;28;20034;-57
2022/06/18 03:33:28;;;;;;;8.02;5.75;;;;;;;20.58;71.52;101613.03;5115762;28;20063;-57
2022/06/18 03:35:54;;;;;;;8.32;5.47;;;;;;;20.66;71.94;101608.22;5116445;28;20356;-57
2022/06/18 03:38:20;;;;;;;7.10;5.35;;;;;;;20.61;71.72;101604.88;5115753;28;20065;-58
2022/06/18 03:40:51;;;;;;;12.43;5.60;;;;;;;20.62;71.98;101611.06;5115942;28;20410;-58
2022/06/18 03:43:17;;;;;;;8.17;5.37;;;;;;;20.59;72.37;101613.88;5115741;28;20042;-57
2022/06/18 03:45:44;;;;;;;8.43;5.20;;;;;;;20.58;71.84;101609.50;5115910;28;20023;-58
2022/06/18 03:48:18;;;;;;;6.32;5.68;;;;;;;20.59;72.48;101616.53;5116210;28;20059;-57
2022/06/18 03:50:43;;;;;;;6.97;5.38;;;;;;;20.61;72.46;101615.53;5115589;28;20031;-58
2022/06/18 03:53:09;;;;;;;9.60;6.00;;;;;;;20.47;73.80;101605.47;5115925;28;20023;-57
2022/06/18 03:55:34;;;;;;;7.25;5.57;;;;;;;20.52;73.02;101610.59;5115402;28;20067;-57
2022/06/18 03:57:59;;;;;;;8.80;6.05;;;;;;;20.52;73.19;101601.75;5115340;28;20430;-57
2022/06/18 04:00:25;;;;;;;6.82;5.63;;;;;;;20.60;72.71;101599.66;5115831;28;20024;-58
2022/06/18 04:02:50;;;;;;;9.07;6.10;;;;;;;20.55;73.58;101602.50;5115653;28;20027;-58
2022/06/18 04:05:16;;;;;;;12.38;5.78;;;;;;;20.60;73.52;101597.00;5115599;28;20433;-57
2022/06/18 04:07:42;;;;;;;7.68;5.60;;;;;;;20.58;73.54;101598.84;5115494;28;20085;-57
2022/06/18 04:10:10;;;;;;;9.05;6.15;;;;;;;20.64;73.63;101601.22;5115365;28;20035;-58
2022/06/18 04:12:35;;;;;;;8.57;6.43;;;;;;;20.70;72.00;101593.88;5115283;28;20039;-57
2022/06/18 04:15:01;;;;;;;9.85;6.68;;;;;;;20.65;73.97;101584.34;5115428;28;20350;-57
2022/06/18 04:17:26;;;;;;;8.23;6.45;;;;;;;20.72;73.11;101585.81;5120110;28;20035;-57
2022/06/18 04:19:51;;;;;;;9.25;6.45;;;;;;;20.74;73.71;101592.81;5119912;28;20031;-57
2022/06/18 04:22:17;;;;;;;10.50;6.72;;;;;;;20.82;73.02;101589.78;5119637;28;20031;-57
2022/06/18 04:24:42;;;;;;;8.57;6.78;;;;;;;20.74;73.67;101587.47;5119478;28;20442;-58
2022/06/18 04:27:07;;;;;;;7.45;6.50;;;;;;;20.81;73.71;101596.03;5119593;28;20078;-56
2022/06/18 04:29:34;;;;;;;10.93;6.68;;;;;;;20.85;73.63;101592.31;5119181;28;20339;-57
2022/06/18 04:32:00;;;;;;;11.50;6.25;;;;;;;20.92;72.86;101599.13;5119343;28;20031;-56
2022/06/18 04:34:26;;;;;;;10.05;6.93;;;;;;;20.89;72.95;101593.91;5119359;28;20062;-56
2022/06/18 04:36:52;;;;;;;8.65;6.32;;;;;;;20.96;73.48;101595.34;5119304;28;20390;-57
2022/06/18 04:39:18;;;;;;;10.52;6.90;;;;;;;21.02;72.77;101592.44;5119444;28;20039;-56
2022/06/18 04:41:44;;;;;;;12.35;7.15;;;;;;;21.05;72.11;101586.97;5119086;28;20463;-56
2022/06/18 04:44:09;;;;;;;11.10;7.65;;;;;;;21.04;71.58;101590.56;5119522;28;20482;-56
2022/06/18 04:46:34;;;;;;;9.85;6.82;;;;;;;21.13;72.40;101587.47;5119331;28;20028;-57
2022/06/18 04:49:00;;;;;;;10.02;7.60;;;;;;;21.16;71.31;101592.66;5119167;28;20032;-56
2022/06/18 04:51:25;;;;;;;10.00;6.57;;;;;;;21.26;71.40;101586.97;5118840;28;20028;-57
2022/06/18 04:53:51;;;;;;;11.23;7.82;;;;;;;21.28;70.62;101585.97;5118877;28;20070;-57
2022/06/18 04:56:16;;;;;;;11.82;7.30;;;;;;;21.31;71.17;101583.16;5118676;28;20035;-57
2022/06/18 04:58:42;;;;;;;12.00;7.47;;;;;;;21.32;71.00;101587.53;5118469;28;20396;-57
2022/06/18 05:01:12;;;;;;;11.02;7.93;;;;;;;21.34;71.15;101592.78;5104780;28;20141;-57
2022/06/18 05:03:38;;;;;;;10.75;7.97;;;;;;;21.41;70.47;101589.78;5098616;28;20439;-57
2022/06/18 05:06:03;;;;;;;11.52;7.38;;;;;;;21.49;70.20;101589.41;5098218;28;20097;-56
2022/06/18 05:08:28;;;;;;;10.98;7.57;;;;;;;21.50;69.90;101592.00;5098393;28;20024;-57
2022/06/18 05:10:53;;;;;;;10.73;8.00;;;;;;;21.55;69.34;101589.13;5098130;28;20031;-56
2022/06/18 05:13:19;;;;;;;11.93;7.67;;;;;;;21.57;69.77;101589.06;5098273;28;20266;-56
2022/06/18 05:15:46;;;;;;;11.30;8.30;;;;;;;21.58;69.34;101586.34;5098186;28;20693;-56
2022/06/18 05:18:14;;;;;;;10.75;7.50;;;;;;;21.63;69.49;101591.44;5098018;28;20270;-57
2022/06/18 05:20:39;;;;;;;9.93;7.38;;;;;;;21.69;69.06;101591.13;5098003;28;20498;-57
2022/06/18 05:23:04;;;;;;;11.98;7.75;;;;;;;21.71;68.43;101590.13;5097846;28;20103;-57
2022/06/18 05:25:29;;;;;;;10.48;8.10;;;;;;;21.74;68.21;101597.97;5098169;28;20034;-57
2022/06/18 05:27:55;;;;;;;10.93;7.88;;;;;;;21.77;68.45;101602.31;5097365;28;20455;-56
2022/06/18 05:30:27;;;;;;;12.23;7.78;;;;;;;21.78;68.22;101604.91;5097908;28;20047;-56
2022/06/18 05:32:52;;;;;;;9.73;7.82;;;;;;;21.87;68.12;101603.56;5098290;28;20334;-56
2022/06/18 05:35:18;;;;;;;9.98;8.32;;;;;;;21.92;67.37;101603.38;5097424;28;20028;-57
2022/06/18 05:37:44;;;;;;;10.65;8.35;;;;;;;21.97;67.62;101609.34;5098081;28;20035;-57
2022/06/18 05:40:11;;;;;;;15.23;8.90;;;;;;;22.00;66.95;101618.06;5097611;28;20115;-58
2022/06/18 05:42:37;;;;;;;11.40;8.70;;;;;;;22.01;67.06;101616.25;5097848;28;20055;-58
2022/06/18 05:45:03;;;;;;;11.98;8.70;;;;;;;22.03;67.49;101609.94;5097726;28;20423;-57
2022/06/18 05:47:31;;;;;;;12.88;9.10;;;;;;;22.15;66.99;101620.00;5097686;28;20328;-58
2022/06/18 05:49:57;;;;;;;14.93;9.43;;;;;;;22.17;66.44;101611.91;5097591;28;20036;-59
2022/06/18 05:52:23;;;;;;;12.07;9.35;;;;;;;22.26;66.68;101615.94;5097949;28;20103;-58
2022/06/18 05:54:51;;;;;;;11.55;8.05;;;;;;;22.33;67.38;101614.69;5097501;28;20032;-58
2022/06/18 05:57:18;;;;;;;12.15;8.85;;;;;;;22.39;66.65;101620.56;5097490;28;20028;-58
2022/06/18 05:59:43;;;;;;;11.98;8.20;;;;;;;22.72;65.85;101617.13;5097456;28;20051;-56
2022/06/18 06:02:13;;;;;;;12.05;7.80;;;;;;;23.13;64.39;101607.84;5097425;28;20435;-59
2022/06/18 06:04:40;;;;;;;12.73;8.02;;;;;;;23.36;63.49;101606.63;5097502;28;20312;-58
2022/06/18 06:07:23;;;;;;;13.02;7.90;;;;;;;23.37;63.12;101607.47;5097096;28;20036;-59
2022/06/18 06:12:34;;;;;;;10.70;7.82;;;;;;;23.30;62.97;101600.72;5097535;28;20047;-57
2022/06/18 06:15:00;;;;;;;11.07;7.70;;;;;;;23.23;63.33;101594.84;5096692;28;20027;-56
2022/06/18 06:17:27;;;;;;;12.32;7.40;;;;;;;23.22;62.96;101593.97;5096933;28;20039;-57
2022/06/18 06:19:58;;;;;;;11.30;6.95;;;;;;;23.25;63.37;101591.16;5097155;28;20397;-56
2022/06/18 06:22:24;;;;;;;11.15;7.32;;;;;;;23.25;62.28;101595.63;5097266;28;20028;-58
2022/06/18 06:24:49;;;;;;;8.90;6.55;;;;;;;23.25;62.71;101588.47;5096717;28;20032;-58
2022/06/18 06:27:14;;;;;;;14.13;7.15;;;;;;;23.25;60.78;101596.50;5096676;28;20035;-58
2022/06/18 06:29:40;;;;;;;14.82;6.90;;;;;;;23.22;61.29;101587.78;5096893;28;20044;-57
2022/06/18 06:32:05;;;;;;;12.25;6.95;;;;;;;23.24;60.58;101599.25;5096788;28;20093;-57
2022/06/18 06:34:31;;;;;;;11.80;6.50;;;;;;;23.25;61.00;101599.16;5096592;28;20085;-58
2022/06/18 06:36:56;;;;;;;14.27;7.10;;;;;;;23.26;60.34;101598.22;5096648;28;20049;-57
2022/06/18 06:39:22;;;;;;;12.80;6.10;;;;;;;23.29;60.69;101591.84;5096256;28;20266;-57
2022/06/18 06:41:47;;;;;;;12.55;6.60;;;;;;;23.41;60.38;101590.31;5096625;28;20032;-57
2022/06/18 06:44:12;;;;;;;13.05;6.15;;;;;;;23.48;60.92;101586.38;5096379;28;20540;-58
2022/06/18 06:46:38;;;;;;;11.63;6.68;;;;;;;23.50;59.16;101587.16;5096483;28;20343;-57
2022/06/18 06:49:03;;;;;;;13.43;6.23;;;;;;;23.49;59.43;101593.44;5096249;28;20036;-58
2022/06/18 06:51:30;;;;;;;11.93;7.18;;;;;;;23.55;59.03;101595.81;5096409;28;20357;-57
2022/06/18 06:53:56;;;;;;;10.35;6.75;;;;;;;23.58;58.80;101593.81;5096018;28;20028;-57
2022/06/18 06:59:07;;;;;;;8.52;5.82;;;;;;;23.87;58.53;101596.66;5095911;28;20196;-59
2022/06/18 07:01:34;;;;;;;13.60;6.03;;;;;;;23.94;58.66;101592.69;5096162;28;20063;-57
2022/06/18 07:04:00;;;;;;;12.90;6.20;;;;;;;24.04;59.42;101595.69;5096179;28;20097;-56
2022/06/18 07:06:25;;;;;;;13.60;6.18;;;;;;;24.03;58.04;101591.31;5096073;28;20077;-56
2022/06/18 07:08:50;;;;;;;10.80;6.50;;;;;;;24.00;57.89;101595.00;5102461;28;20106;-57
2022/06/18 07:11:16;;;;;;;12.68;6.70;;;;;;;23.93;58.14;101596.28;5116290;28;20265;-56
2022/06/18 07:13:41;;;;;;;11.77;6.25;;;;;;;23.93;59.06;101591.81;5116240;28;20389;-58
2022/06/18 07:16:11;;;;;;;16.70;6.60;;;;;;;23.97;59.74;101597.00;5116078;28;20104;-58
2022/06/18 07:18:36;;;;;;;10.18;6.75;;;;;;;24.02;59.54;101594.94;5116204;28;20034;-58
2022/06/18 07:21:05;;;;;;;16.85;7.13;;;;;;;24.06;59.81;101592.00;5116260;28;20031;-59
2022/06/18 07:23:31;;;;;;;16.30;6.63;;;;;;;24.22;60.62;101592.81;5115498;28;20032;-58
2022/06/18 07:25:57;;;;;;;12.88;7.10;;;;;;;24.26;59.91;101601.53;5115832;28;20180;-59
2022/06/18 07:28:23;;;;;;;13.07;7.97;;;;;;;24.40;59.63;101598.06;5115804;28;20127;-57
2022/06/18 07:30:48;;;;;;;12.70;7.63;;;;;;;24.40;59.77;101587.38;5115890;28;20057;-57
2022/06/18 07:33:19;;;;;;;12.68;7.90;;;;;;;24.40;59.34;101585.56;5115770;28;20354;-57
2022/06/18 07:35:44;;;;;;;10.55;7.13;;;;;;;24.46;59.58;101587.84;5116095;28;20036;-58
2022/06/18 07:38:10;;;;;;;15.20;7.63;;;;;;;24.53;59.38;101586.53;5115968;28;20038;-58
2022/06/18 07:40:41;;;;;;;12.90;6.93;;;;;;;24.58;58.14;101589.81;5116038;28;20365;-58
2022/06/18 07:43:08;;;;;;;12.93;7.72;;;;;;;24.64;58.23;101585.88;5115314;28;20110;-58
2022/06/18 07:45:33;;;;;;;12.98;7.30;;;;;;;24.73;57.49;101573.78;5115915;28;20031;-57
2022/06/18 07:47:58;;;;;;;11.32;6.93;;;;;;;24.81;57.19;101575.00;5115888;28;20030;-57
2022/06/18 07:50:24;;;;;;;12.85;6.85;;;;;;;24.92;56.88;101580.59;5115614;28;20050;-56
2022/06/18 07:52:50;;;;;;;12.27;7.18;;;;;;;24.97;55.81;101583.00;5115657;28;20043;-57
2022/06/18 07:55:18;;;;;;;14.65;6.90;;;;;;;24.87;56.82;101582.69;5115758;28;20038;-58
2022/06/18 07:57:43;;;;;;;13.80;7.35;;;;;;;24.93;57.15;101578.78;5108173;28;20028;-57
2022/06/18 08:00:11;;;;;;;12.18;7.18;;;;;;;25.00;56.48;101569.41;5095325;28;20028;-58
2022/06/18 08:02:39;;;;;;;17.95;6.70;;;;;;;25.15;56.49;101571.13;5095192;28;20111;-58
2022/06/18 08:05:05;;;;;;;15.25;6.75;;;;;;;25.19;56.95;101566.44;5095221;28;20039;-57
2022/06/18 08:07:30;;;;;;;17.13;6.30;;;;;;;25.27;56.43;101553.44;5094994;28;20028;-57
2022/06/18 08:09:56;;;;;;;12.98;6.68;;;;;;;25.40;56.00;101569.59;5094917;28;20043;-57
2022/06/18 08:12:22;;;;;;;12.03;6.80;;;;;;;25.36;55.20;101560.03;5095259;28;20036;-57
2022/06/18 08:14:48;;;;;;;11.27;6.97;;;;;;;25.38;55.78;101556.28;5095047;28;20359;-57
2022/06/18 08:17:13;;;;;;;11.68;7.03;;;;;;;25.44;55.22;101555.91;5094977;28;20032;-57
2022/06/18 08:19:38;;;;;;;13.55;6.88;;;;;;;25.50;55.32;101552.81;5095035;28;20097;-57
2022/06/18 08:22:04;;;;;;;10.70;6.47;;;;;;;25.59;55.78;101548.69;5094767;28;20434;-57
2022/06/18 08:24:30;;;;;;;14.02;6.82;;;;;;;25.66;55.04;101544.66;5095074;28;20032;-59
2022/06/18 08:26:55;;;;;;;17.48;7.28;;;;;;;25.75;55.57;101549.44;5094666;28;20087;-57
2022/06/18 08:29:24;;;;;;;12.38;6.90;;;;;;;25.82;54.81;101555.25;5094760;28;20079;-58
2022/06/18 08:31:49;;;;;;;14.93;5.80;;;;;;;25.85;54.14;101542.50;5095138;28;20035;-58
2022/06/18 08:34:15;;;;;;;12.95;6.50;;;;;;;25.99;55.73;101533.53;5094937;28;20035;-58
2022/06/18 08:36:41;;;;;;;18.75;7.57;;;;;;;25.96;53.55;101537.31;5094754;28;20054;-58
2022/06/18 08:39:07;;;;;;;11.60;6.50;;;;;;;25.95;53.57;101538.25;5094678;28;20039;-58
2022/06/18 08:42:03;;;;;;;13.00;6.55;;;;;;;26.08;54.94;101537.44;5094589;28;20032;-58
2022/06/18 08:44:51;;;;;;;9.75;5.65;;;;;;;26.25;55.83;101539.84;5094948;28;20023;-57
2022/06/18 08:47:22;;;;;;;14.18;6.38;;;;;;;26.30;53.75;101529.69;5094808;28;20131;-58
2022/06/18 08:50:18;;;;;;;14.48;6.72;;;;;;;26.48;53.70;101539.16;5094577;28;20039;-57
2022/06/18 08:52:58;;;;;;;15.25;6.38;;;;;;;26.45;52.53;101543.88;5094871;28;20020;-57
2022/06/18 08:55:34;;;;;;;11.68;6.05;;;;;;;26.62;53.83;101540.88;5094674;28;20070;-57
2022/06/18 08:58:31;;;;;;;15.25;6.50;;;;;;;26.94;52.16;101535.97;5094379;28;20423;-58
2022/06/18 09:01:00;;;;;;;11.65;5.65;;;;;;;27.27;52.91;101536.22;5056263;28;20164;-57
2022/06/18 09:03:37;;;;;;;11.43;5.53;;;;;;;27.53;50.24;101544.25;5098346;28;20431;-58
2022/06/18 09:06:11;;;;;;;10.57;5.60;;;;;;;27.94;50.50;101533.97;5098401;28;20031;-57
2022/06/18 09:09:09;;;;;;;12.95;5.97;;;;;;;28.24;48.40;101530.78;5098708;28;20032;-58
2022/06/18 09:11:43;;;;;;;13.68;6.13;;;;;;;28.77;47.08;101542.78;5084722;28;20408;-57
2022/06/18 09:14:14;;;;;;;11.95;5.80;;;;;;;29.13;45.91;101543.56;5098024;28;20031;-59
2022/06/18 09:17:00;;;;;;;14.52;5.95;;;;;;;29.71;45.82;101546.94;5098142;28;20036;-57
2022/06/18 09:19:28;;;;;;;14.02;6.35;;;;;;;30.13;43.92;101539.84;5098532;28;20114;-59
2022/06/18 09:21:56;;;;;;;13.48;6.32;;;;;;;30.48;43.33;101540.34;5098504;28;20102;-56
2022/06/18 09:24:34;;;;;;;11.35;5.75;;;;;;;30.73;43.64;101546.38;5097956;28;20027;-57
2022/06/18 09:27:05;;;;;;;14.65;5.57;;;;;;;31.14;42.59;101540.06;5097834;28;20024;-58
2022/06/18 09:29:52;;;;;;;11.13;5.78;;;;;;;31.91;41.00;101537.53;5097879;28;20073;-58
2022/06/18 09:32:33;;;;;;;15.23;7.47;;;;;;;32.32;40.34;101538.28;5097599;28;20460;-57
2022/06/18 09:35:04;;;;;;;12.32;6.63;;;;;;;32.13;40.58;101539.09;5097657;28;20104;-58
2022/06/18 09:37:41;;;;;;;12.05;7.10;;;;;;;31.81;40.56;101540.25;5097501;28;20024;-58
2022/06/18 09:40:15;;;;;;;13.18;6.85;;;;;;;31.27;40.80;101537.97;5097643;28;20035;-57
2022/06/18 09:42:48;;;;;;;13.20;6.53;;;;;;;30.79;42.15;101537.75;5097726;28;20311;-58
2022/06/18 09:45:28;;;;;;;12.48;6.43;;;;;;;30.48;43.49;101535.97;5097635;28;20034;-58
2022/06/18 09:47:54;;;;;;;16.05;7.53;;;;;;;30.22;43.89;101530.09;5097057;28;20526;-58
2022/06/18 09:50:25;;;;;;;15.40;7.75;;;;;;;30.04;43.80;101527.97;5097476;28;20126;-58
2022/06/18 09:52:52;;;;;;;;;;;;;;;29.97;45.22;101526.75;5098056;28;20027;-58
2022/06/18 09:55:23;;;;;;;13.57;6.75;;;;;;;29.63;45.46;101520.59;5096791;28;19916;-58
2022/06/18 09:57:54;;;;;;;18.30;6.95;;;;;;;29.65;45.02;101520.47;5097512;28;20031;-58
2022/06/18 10:00:23;;;;;;;13.05;5.68;;;;;;;29.54;45.40;101515.97;5097999;28;20403;-58
2022/06/18 10:06:52;;;;;;;12.57;6.82;;;;;;;29.52;45.10;101526.03;5096847;28;20503;-58
2022/06/18 10:08:50;;;;;;;15.18;6.47;;;;;;;29.77;45.13;101517.63;5097384;28;20371;-58
2022/06/18 10:11:19;;;;;;;10.63;6.03;;;;;;;29.85;45.87;101510.72;5096891;28;20111;-58
2022/06/18 10:13:54;;;;;;;13.15;6.75;;;;;;;29.88;44.02;101508.63;5095823;28;20024;-58
2022/06/18 10:16:34;;;;;;;13.35;6.15;;;;;;;29.74;44.88;101512.47;5097377;28;20044;-58
2022/06/18 10:19:13;;;;;;;16.55;7.30;;;;;;;29.86;45.36;101513.28;5078370;28;20387;-58
2022/06/18 10:21:50;;;;;;;12.73;6.50;;;;;;;29.94;44.95;101509.94;5096765;28;20107;-58
2022/06/18 10:24:34;;;;;;;12.88;6.13;;;;;;;30.05;45.14;101504.53;5102705;28;20111;-58
2022/06/18 10:27:37;;;;;;;12.85;6.35;;;;;;;30.21;44.89;101504.94;5096682;28;20036;-57
2022/06/18 10:30:18;;;;;;;14.23;7.15;;;;;;;30.11;44.35;101502.16;5096800;28;20447;-58
2022/06/18 10:32:44;;;;;;;17.25;7.30;;;;;;;30.11;44.04;101493.22;5097086;28;20044;-58
2022/06/18 10:35:19;;;;;;;11.73;6.53;;;;;;;30.18;44.95;101494.38;5096291;28;20028;-58
2022/06/18 10:38:17;;;;;;;12.82;6.60;;;;;;;30.35;45.47;101491.09;5096352;28;20020;-57
2022/06/18 10:41:01;;;;;;;14.00;6.28;;;;;;;30.56;44.58;101490.25;5096507;28;20130;-57
2022/06/18 10:43:49;;;;;;;16.17;6.03;;;;;;;30.54;44.33;101486.78;5096527;28;20358;-58
2022/06/18 10:46:21;;;;;;;11.32;5.95;;;;;;;30.69;44.49;101480.06;5096372;28;20057;-58
2022/06/18 10:48:50;;;;;;;13.23;6.13;;;;;;;30.86;44.43;101474.03;5096332;28;20020;-58
2022/06/18 10:51:22;;;;;;;15.80;6.38;;;;;;;30.82;42.96;101471.75;5096377;28;20131;-57
2022/06/18 10:53:53;;;;;;;11.63;6.47;;;;;;;30.94;43.16;101478.75;5096104;28;20051;-54
2022/06/18 10:56:23;;;;;;;12.40;6.40;;;;;;;30.96;43.05;101465.97;5095813;28;20031;-52
2022/06/18 10:58:51;;;;;;;18.85;6.90;;;;;;;31.12;42.77;101460.94;5095357;28;20038;-49
2022/06/18 11:01:25;;;;;;;12.07;6.53;;;;;;;31.17;43.31;101468.63;5095974;28;20024;-53
2022/06/18 11:04:00;;;;;;;18.13;5.68;;;;;;;31.19;42.65;101458.50;5095979;28;20081;-49
2022/06/18 11:06:27;;;;;;;13.13;6.55;;;;;;;31.27;42.99;101458.69;5096001;28;20092;-57
2022/06/18 11:08:57;;;;;;;12.38;5.65;;;;;;;31.27;42.75;101466.78;5096206;28;20032;-59
2022/06/18 11:11:36;;;;;;;12.38;6.68;;;;;;;31.35;43.01;101453.41;5095851;28;20028;-60
2022/06/18 11:14:19;;;;;;;16.27;6.97;;;;;;;31.37;42.35;101454.13;5095723;28;20115;-60
2022/06/18 11:16:48;;;;;;;14.05;5.93;;;;;;;31.34;42.49;101441.75;5095930;28;20036;-58
2022/06/18 11:19:17;;;;;;;14.43;6.18;;;;;;;31.43;41.99;101431.94;5095868;28;20035;-58
2022/06/18 11:21:43;;;;;;;14.88;5.97;;;;;;;31.40;40.45;101434.91;5106351;28;20043;-59
2022/06/18 11:24:12;;;;;;;14.93;6.07;;;;;;;31.28;40.65;101426.09;5115926;28;20066;-58
2022/06/18 11:26:43;;;;;;;14.68;6.18;;;;;;;31.13;40.62;101431.03;5116218;28;20031;-59
2022/06/18 11:29:25;;;;;;;13.60;6.18;;;;;;;31.08;41.67;101424.31;5115856;28;20051;-59
2022/06/18 11:31:53;;;;;;;12.45;5.55;;;;;;;31.14;41.35;101418.38;5115846;28;20043;-59
2022/06/18 11:34:38;;;;;;;17.70;6.13;;;;;;;31.27;40.89;101410.00;5115829;28;20031;-59
2022/06/18 11:37:31;;;;;;;15.48;5.90;;;;;;;31.46;41.76;101408.16;5115793;28;20035;-58
2022/06/18 11:40:03;;;;;;;13.40;5.60;;;;;;;31.67;41.49;101404.50;5112041;28;20103;-60
2022/06/18 11:42:31;;;;;;;14.30;5.80;;;;;;;31.74;40.98;101400.19;5115187;28;20519;-60
2022/06/18 11:45:17;;;;;;;18.00;6.15;;;;;;;31.71;40.99;101401.31;5115857;28;20038;-59
2022/06/18 11:47:49;;;;;;;13.55;5.97;;;;;;;31.70;40.36;101396.91;5115776;28;20439;-60